sensor_id;sensor_type;location;lat;lon;timestamp;P1;durP1;ratioP1;P2;durP2;ratioP2
27822;SDS011;29019;47.630;8.262;2023-07-08T00:02:35;0.70;;;0.50;;
27822;SDS011;29019;47.630;8.262;2023-07-08T00:10:37;0.60;;;0.57;;
27822;SDS011;29019;47.630;8.262;2023-07-08T00:14:37;0.60;;;0.50;;
27822;SDS011;29019;47.630;8.262;2023-07-08T00:18:38;0.30;;;0.30;;
27822;SDS011;29019;47.630;8.262;2023-07-08T00:22:40;0.43;;;0.43;;
27822;SDS011;29019;47.630;8.262;2023-07-08T00:26:41;0.55;;;0.47;;
27822;SDS011;29019;47.630;8.262;2023-07-08T00:30:41;0.47;;;0.47;;
27822;SDS011;29019;47.630;8.262;2023-07-08T00:34:42;0.40;;;0.40;;
27822;SDS011;29019;47.630;8.262;2023-07-08T00:38:43;0.40;;;0.40;;
27822;SDS011;29019;47.630;8.262;2023-07-08T00:42:45;0.57;;;0.50;;
27822;SDS011;29019;47.630;8.262;2023-07-08T00:46:49;0.75;;;0.60;;
27822;SDS011;29019;47.630;8.262;2023-07-08T00:50:54;0.82;;;0.55;;
27822;SDS011;29019;47.630;8.262;2023-07-08T00:54:55;0.40;;;0.40;;
27822;SDS011;29019;47.630;8.262;2023-07-08T00:59:06;0.77;;;0.50;;
27822;SDS011;29019;47.630;8.262;2023-07-08T01:03:11;0.38;;;0.38;;
27822;SDS011;29019;47.630;8.262;2023-07-08T01:07:11;0.45;;;0.45;;
27822;SDS011;29019;47.630;8.262;2023-07-08T01:15:13;0.70;;;0.57;;
27822;SDS011;29019;47.630;8.262;2023-07-08T01:19:16;0.50;;;0.50;;
27822;SDS011;29019;47.630;8.262;2023-07-08T01:23:19;0.45;;;0.43;;
27822;SDS011;29019;47.630;8.262;2023-07-08T01:27:19;0.30;;;0.30;;
27822;SDS011;29019;47.630;8.262;2023-07-08T01:31:21;0.60;;;0.45;;
27822;SDS011;29019;47.630;8.262;2023-07-08T01:35:23;0.43;;;0.40;;
27822;SDS011;29019;47.630;8.262;2023-07-08T01:39:24;0.68;;;0.52;;
27822;SDS011;29019;47.630;8.262;2023-07-08T01:43:27;2.05;;;0.57;;
27822;SDS011;29019;47.630;8.262;2023-07-08T01:47:27;0.95;;;0.60;;
27822;SDS011;29019;47.630;8.262;2023-07-08T01:51:28;0.80;;;0.70;;
27822;SDS011;29019;47.630;8.262;2023-07-08T01:55:29;0.60;;;0.50;;
27822;SDS011;29019;47.630;8.262;2023-07-08T01:59:30;0.70;;;0.50;;
27822;SDS011;29019;47.630;8.262;2023-07-08T02:03:31;0.30;;;0.30;;
27822;SDS011;29019;47.630;8.262;2023-07-08T02:07:32;1.08;;;0.40;;
27822;SDS011;29019;47.630;8.262;2023-07-08T02:11:32;0.50;;;0.40;;
27822;SDS011;29019;47.630;8.262;2023-07-08T02:15:33;0.70;;;0.40;;
27822;SDS011;29019;47.630;8.262;2023-07-08T02:19:34;1.15;;;0.50;;
27822;SDS011;29019;47.630;8.262;2023-07-08T02:23:34;0.50;;;0.43;;
27822;SDS011;29019;47.630;8.262;2023-07-08T02:27:35;0.57;;;0.40;;
27822;SDS011;29019;47.630;8.262;2023-07-08T02:31:37;0.40;;;0.40;;
27822;SDS011;29019;47.630;8.262;2023-07-08T02:35:37;1.13;;;0.60;;
27822;SDS011;29019;47.630;8.262;2023-07-08T02:39:38;0.40;;;0.40;;
27822;SDS011;29019;47.630;8.262;2023-07-08T02:43:39;0.52;;;0.50;;
27822;SDS011;29019;47.630;8.262;2023-07-08T02:47:40;0.98;;;0.50;;
27822;SDS011;29019;47.630;8.262;2023-07-08T02:51:40;0.63;;;0.50;;
27822;SDS011;29019;47.630;8.262;2023-07-08T02:55:41;0.60;;;0.60;;
27822;SDS011;29019;47.630;8.262;2023-07-08T02:59:42;0.68;;;0.40;;
27822;SDS011;29019;47.630;8.262;2023-07-08T03:03:46;0.50;;;0.40;;
27822;SDS011;29019;47.630;8.262;2023-07-08T03:07:48;0.70;;;0.50;;
27822;SDS011;29019;47.630;8.262;2023-07-08T03:11:48;0.70;;;0.60;;
27822;SDS011;29019;47.630;8.262;2023-07-08T03:15:49;0.50;;;0.40;;
27822;SDS011;29019;47.630;8.262;2023-07-08T03:19:50;0.52;;;0.40;;
27822;SDS011;29019;47.630;8.262;2023-07-08T03:23:51;0.40;;;0.40;;
27822;SDS011;29019;47.630;8.262;2023-07-08T03:27:52;0.40;;;0.30;;
27822;SDS011;29019;47.630;8.262;2023-07-08T03:31:55;0.73;;;0.60;;
27822;SDS011;29019;47.630;8.262;2023-07-08T03:35:55;0.60;;;0.60;;
27822;SDS011;29019;47.630;8.262;2023-07-08T03:39:56;0.50;;;0.30;;
27822;SDS011;29019;47.630;8.262;2023-07-08T03:43:57;0.60;;;0.50;;
27822;SDS011;29019;47.630;8.262;2023-07-08T03:47:57;0.75;;;0.50;;
27822;SDS011;29019;47.630;8.262;2023-07-08T03:51:58;0.68;;;0.60;;
27822;SDS011;29019;47.630;8.262;2023-07-08T03:55:59;0.40;;;0.40;;
27822;SDS011;29019;47.630;8.262;2023-07-08T03:59:59;0.50;;;0.50;;
27822;SDS011;29019;47.630;8.262;2023-07-08T04:04:00;0.40;;;0.40;;
27822;SDS011;29019;47.630;8.262;2023-07-08T04:08:00;0.40;;;0.40;;
27822;SDS011;29019;47.630;8.262;2023-07-08T04:12:01;0.70;;;0.70;;
27822;SDS011;29019;47.630;8.262;2023-07-08T04:16:02;0.30;;;0.30;;
27822;SDS011;29019;47.630;8.262;2023-07-08T04:20:05;0.65;;;0.50;;
27822;SDS011;29019;47.630;8.262;2023-07-08T04:28:08;1.05;;;0.50;;
27822;SDS011;29019;47.630;8.262;2023-07-08T04:32:09;0.82;;;0.47;;
27822;SDS011;29019;47.630;8.262;2023-07-08T04:40:18;0.70;;;0.55;;
27822;SDS011;29019;47.630;8.262;2023-07-08T04:44:20;0.57;;;0.40;;
27822;SDS011;29019;47.630;8.262;2023-07-08T04:48:20;0.65;;;0.52;;
27822;SDS011;29019;47.630;8.262;2023-07-08T04:56:22;0.87;;;0.70;;
27822;SDS011;29019;47.630;8.262;2023-07-08T05:00:23;0.60;;;0.50;;
27822;SDS011;29019;47.630;8.262;2023-07-08T05:08:25;0.50;;;0.50;;
27822;SDS011;29019;47.630;8.262;2023-07-08T05:12:26;0.75;;;0.57;;
27822;SDS011;29019;47.630;8.262;2023-07-08T05:20:27;0.55;;;0.50;;
27822;SDS011;29019;47.630;8.262;2023-07-08T05:24:30;0.82;;;0.57;;
27822;SDS011;29019;47.630;8.262;2023-07-08T05:28:31;0.47;;;0.47;;
27822;SDS011;29019;47.630;8.262;2023-07-08T05:32:32;0.60;;;0.50;;
27822;SDS011;29019;47.630;8.262;2023-07-08T05:40:33;0.40;;;0.40;;
27822;SDS011;29019;47.630;8.262;2023-07-08T05:44:34;0.65;;;0.45;;
27822;SDS011;29019;47.630;8.262;2023-07-08T05:48:35;0.95;;;0.43;;
27822;SDS011;29019;47.630;8.262;2023-07-08T05:52:36;0.55;;;0.40;;
27822;SDS011;29019;47.630;8.262;2023-07-08T05:56:37;1.13;;;0.40;;
27822;SDS011;29019;47.630;8.262;2023-07-08T06:00:38;0.40;;;0.40;;
27822;SDS011;29019;47.630;8.262;2023-07-08T06:04:39;0.32;;;0.32;;
27822;SDS011;29019;47.630;8.262;2023-07-08T06:08:40;0.38;;;0.38;;
27822;SDS011;29019;47.630;8.262;2023-07-08T06:16:41;0.40;;;0.40;;
27822;SDS011;29019;47.630;8.262;2023-07-08T06:20:50;0.43;;;0.43;;
27822;SDS011;29019;47.630;8.262;2023-07-08T06:24:51;0.35;;;0.35;;
27822;SDS011;29019;47.630;8.262;2023-07-08T06:28:52;1.80;;;0.50;;
27822;SDS011;29019;47.630;8.262;2023-07-08T06:36:53;0.40;;;0.40;;
27822;SDS011;29019;47.630;8.262;2023-07-08T06:40:54;0.50;;;0.50;;
27822;SDS011;29019;47.630;8.262;2023-07-08T06:44:54;0.32;;;0.32;;
27822;SDS011;29019;47.630;8.262;2023-07-08T06:48:55;0.40;;;0.40;;
27822;SDS011;29019;47.630;8.262;2023-07-08T06:52:55;0.55;;;0.50;;
27822;SDS011;29019;47.630;8.262;2023-07-08T06:56:56;0.57;;;0.55;;
27822;SDS011;29019;47.630;8.262;2023-07-08T07:00:57;0.90;;;0.40;;
27822;SDS011;29019;47.630;8.262;2023-07-08T07:04:57;0.40;;;0.40;;
27822;SDS011;29019;47.630;8.262;2023-07-08T07:08:58;0.70;;;0.50;;
27822;SDS011;29019;47.630;8.262;2023-07-08T07:12:59;0.50;;;0.50;;
27822;SDS011;29019;47.630;8.262;2023-07-08T07:16:59;0.35;;;0.35;;
27822;SDS011;29019;47.630;8.262;2023-07-08T07:21:00;0.55;;;0.32;;
27822;SDS011;29019;47.630;8.262;2023-07-08T07:25:01;0.38;;;0.38;;
27822;SDS011;29019;47.630;8.262;2023-07-08T07:29:02;1.75;;;0.50;;
27822;SDS011;29019;47.630;8.262;2023-07-08T07:33:02;0.60;;;0.50;;
27822;SDS011;29019;47.630;8.262;2023-07-08T07:37:03;0.70;;;0.60;;
27822;SDS011;29019;47.630;8.262;2023-07-08T07:41:05;0.50;;;0.50;;
27822;SDS011;29019;47.630;8.262;2023-07-08T07:45:07;1.13;;;0.50;;
27822;SDS011;29019;47.630;8.262;2023-07-08T07:49:08;0.43;;;0.43;;
27822;SDS011;29019;47.630;8.262;2023-07-08T07:53:09;0.50;;;0.32;;
27822;SDS011;29019;47.630;8.262;2023-07-08T07:57:10;0.75;;;0.52;;
27822;SDS011;29019;47.630;8.262;2023-07-08T08:01:10;0.70;;;0.50;;
27822;SDS011;29019;47.630;8.262;2023-07-08T08:05:13;0.50;;;0.30;;
27822;SDS011;29019;47.630;8.262;2023-07-08T08:09:14;0.40;;;0.40;;
27822;SDS011;29019;47.630;8.262;2023-07-08T08:13:14;0.50;;;0.47;;
27822;SDS011;29019;47.630;8.262;2023-07-08T08:17:15;0.40;;;0.40;;
27822;SDS011;29019;47.630;8.262;2023-07-08T08:21:15;0.50;;;0.50;;
27822;SDS011;29019;47.630;8.262;2023-07-08T08:25:17;0.47;;;0.40;;
27822;SDS011;29019;47.630;8.262;2023-07-08T08:29:19;0.60;;;0.50;;
27822;SDS011;29019;47.630;8.262;2023-07-08T08:33:20;0.60;;;0.50;;
27822;SDS011;29019;47.630;8.262;2023-07-08T08:37:20;0.52;;;0.50;;
27822;SDS011;29019;47.630;8.262;2023-07-08T08:41:29;0.32;;;0.30;;
27822;SDS011;29019;47.630;8.262;2023-07-08T08:45:34;0.45;;;0.40;;
27822;SDS011;29019;47.630;8.262;2023-07-08T08:50:00;0.45;;;0.40;;
27822;SDS011;29019;47.630;8.262;2023-07-08T08:54:13;0.38;;;0.32;;
27822;SDS011;29019;47.630;8.262;2023-07-08T09:06:40;0.50;;;0.50;;
27822;SDS011;29019;47.630;8.262;2023-07-08T09:10:45;0.55;;;0.50;;
27822;SDS011;29019;47.630;8.262;2023-07-08T09:14:59;0.40;;;0.40;;
27822;SDS011;29019;47.630;8.262;2023-07-08T09:23:24;0.43;;;0.40;;
27822;SDS011;29019;47.630;8.262;2023-07-08T09:27:29;0.35;;;0.35;;
27822;SDS011;29019;47.630;8.262;2023-07-08T09:31:30;0.40;;;0.40;;
27822;SDS011;29019;47.630;8.262;2023-07-08T09:35:40;0.40;;;0.38;;
27822;SDS011;29019;47.630;8.262;2023-07-08T09:39:43;0.57;;;0.57;;
27822;SDS011;29019;47.630;8.262;2023-07-08T09:43:43;0.77;;;0.40;;
27822;SDS011;29019;47.630;8.262;2023-07-08T09:47:44;0.40;;;0.40;;
27822;SDS011;29019;47.630;8.262;2023-07-08T09:51:46;0.47;;;0.47;;
27822;SDS011;29019;47.630;8.262;2023-07-08T09:55:49;0.45;;;0.40;;
27822;SDS011;29019;47.630;8.262;2023-07-08T10:00:07;0.45;;;0.38;;
27822;SDS011;29019;47.630;8.262;2023-07-08T10:04:13;0.55;;;0.45;;
27822;SDS011;29019;47.630;8.262;2023-07-08T10:08:21;0.40;;;0.40;;
27822;SDS011;29019;47.630;8.262;2023-07-08T10:12:22;0.40;;;0.40;;
27822;SDS011;29019;47.630;8.262;2023-07-08T10:16:28;0.52;;;0.40;;
27822;SDS011;29019;47.630;8.262;2023-07-08T10:38:29;0.32;;;0.30;;
27822;SDS011;29019;47.630;8.262;2023-07-08T10:42:50;0.68;;;0.57;;
27822;SDS011;29019;47.630;8.262;2023-07-08T10:47:20;0.90;;;0.50;;
27822;SDS011;29019;47.630;8.262;2023-07-08T10:51:47;0.50;;;0.40;;
27822;SDS011;29019;47.630;8.262;2023-07-08T10:55:52;0.40;;;0.30;;
27822;SDS011;29019;47.630;8.262;2023-07-08T11:00:16;0.60;;;0.40;;
27822;SDS011;29019;47.630;8.262;2023-07-08T11:08:56;0.43;;;0.40;;
27822;SDS011;29019;47.630;8.262;2023-07-08T11:13:01;0.50;;;0.50;;
27822;SDS011;29019;47.630;8.262;2023-07-08T11:21:47;0.70;;;0.43;;
27822;SDS011;29019;47.630;8.262;2023-07-08T11:25:54;1.90;;;0.80;;
27822;SDS011;29019;47.630;8.262;2023-07-08T11:30:22;0.68;;;0.60;;
27822;SDS011;29019;47.630;8.262;2023-07-08T11:34:26;3.35;;;0.65;;
27822;SDS011;29019;47.630;8.262;2023-07-08T11:38:28;3.15;;;0.70;;
27822;SDS011;29019;47.630;8.262;2023-07-08T11:42:40;3.28;;;0.60;;
27822;SDS011;29019;47.630;8.262;2023-07-08T11:46:53;1.00;;;0.60;;
27822;SDS011;29019;47.630;8.262;2023-07-08T11:50:55;1.13;;;0.73;;
27822;SDS011;29019;47.630;8.262;2023-07-08T11:55:04;0.65;;;0.65;;
27822;SDS011;29019;47.630;8.262;2023-07-08T11:59:26;0.98;;;0.60;;
27822;SDS011;29019;47.630;8.262;2023-07-08T12:03:37;1.38;;;0.60;;
27822;SDS011;29019;47.630;8.262;2023-07-08T12:07:48;0.85;;;0.70;;
27822;SDS011;29019;47.630;8.262;2023-07-08T12:11:59;0.60;;;0.60;;
27822;SDS011;29019;47.630;8.262;2023-07-08T12:16:02;1.05;;;0.60;;
27822;SDS011;29019;47.630;8.262;2023-07-08T12:20:02;1.08;;;0.70;;
27822;SDS011;29019;47.630;8.262;2023-07-08T12:24:15;1.48;;;0.60;;
27822;SDS011;29019;47.630;8.262;2023-07-08T12:28:17;0.90;;;0.70;;
27822;SDS011;29019;47.630;8.262;2023-07-08T12:32:19;0.98;;;0.70;;
27822;SDS011;29019;47.630;8.262;2023-07-08T12:36:24;1.38;;;0.60;;
27822;SDS011;29019;47.630;8.262;2023-07-08T12:40:28;0.93;;;0.70;;
27822;SDS011;29019;47.630;8.262;2023-07-08T12:44:29;0.90;;;0.70;;
27822;SDS011;29019;47.630;8.262;2023-07-08T12:48:33;1.67;;;0.60;;
27822;SDS011;29019;47.630;8.262;2023-07-08T12:52:34;1.08;;;0.80;;
27822;SDS011;29019;47.630;8.262;2023-07-08T12:56:35;0.80;;;0.70;;
27822;SDS011;29019;47.630;8.262;2023-07-08T13:00:38;0.80;;;0.60;;
27822;SDS011;29019;47.630;8.262;2023-07-08T13:04:40;2.40;;;0.70;;
27822;SDS011;29019;47.630;8.262;2023-07-08T13:12:42;1.48;;;0.60;;
27822;SDS011;29019;47.630;8.262;2023-07-08T13:16:44;1.15;;;0.70;;
27822;SDS011;29019;47.630;8.262;2023-07-08T13:20:52;1.00;;;0.60;;
27822;SDS011;29019;47.630;8.262;2023-07-08T13:25:01;1.42;;;0.88;;
27822;SDS011;29019;47.630;8.262;2023-07-08T13:29:13;0.82;;;0.68;;
27822;SDS011;29019;47.630;8.262;2023-07-08T13:33:16;0.60;;;0.52;;
27822;SDS011;29019;47.630;8.262;2023-07-08T13:37:17;1.30;;;0.85;;
27822;SDS011;29019;47.630;8.262;2023-07-08T13:41:21;2.45;;;0.70;;
27822;SDS011;29019;47.630;8.262;2023-07-08T13:45:25;0.60;;;0.60;;
27822;SDS011;29019;47.630;8.262;2023-07-08T13:49:28;1.88;;;0.68;;
27822;SDS011;29019;47.630;8.262;2023-07-08T13:57:39;1.10;;;0.88;;
27822;SDS011;29019;47.630;8.262;2023-07-08T14:01:40;0.82;;;0.60;;
27822;SDS011;29019;47.630;8.262;2023-07-08T14:05:43;0.85;;;0.70;;
27822;SDS011;29019;47.630;8.262;2023-07-08T14:09:44;1.80;;;0.70;;
27822;SDS011;29019;47.630;8.262;2023-07-08T14:13:45;1.08;;;0.60;;
27822;SDS011;29019;47.630;8.262;2023-07-08T14:21:47;0.77;;;0.55;;
27822;SDS011;29019;47.630;8.262;2023-07-08T14:25:57;1.45;;;0.80;;
27822;SDS011;29019;47.630;8.262;2023-07-08T14:29:57;1.10;;;0.60;;
27822;SDS011;29019;47.630;8.262;2023-07-08T14:38:04;0.90;;;0.70;;
27822;SDS011;29019;47.630;8.262;2023-07-08T14:42:10;1.75;;;0.60;;
27822;SDS011;29019;47.630;8.262;2023-07-08T14:46:12;3.50;;;0.80;;
27822;SDS011;29019;47.630;8.262;2023-07-08T14:50:14;0.60;;;0.60;;
27822;SDS011;29019;47.630;8.262;2023-07-08T14:54:15;2.30;;;0.77;;
27822;SDS011;29019;47.630;8.262;2023-07-08T14:58:19;1.25;;;0.52;;
27822;SDS011;29019;47.630;8.262;2023-07-08T15:02:22;1.13;;;0.65;;
27822;SDS011;29019;47.630;8.262;2023-07-08T15:06:23;2.83;;;1.90;;
27822;SDS011;29019;47.630;8.262;2023-07-08T15:10:25;3.05;;;1.95;;
27822;SDS011;29019;47.630;8.262;2023-07-08T15:14:28;4.18;;;1.67;;
27822;SDS011;29019;47.630;8.262;2023-07-08T15:18:29;1.75;;;1.20;;
27822;SDS011;29019;47.630;8.262;2023-07-08T15:22:29;0.93;;;0.75;;
27822;SDS011;29019;47.630;8.262;2023-07-08T15:26:30;1.02;;;0.80;;
27822;SDS011;29019;47.630;8.262;2023-07-08T15:34:31;2.70;;;0.97;;
27822;SDS011;29019;47.630;8.262;2023-07-08T15:42:32;4.53;;;1.67;;
27822;SDS011;29019;47.630;8.262;2023-07-08T15:46:37;8.35;;;2.22;;
27822;SDS011;29019;47.630;8.262;2023-07-08T15:50:50;4.78;;;2.30;;
27822;SDS011;29019;47.630;8.262;2023-07-08T15:54:51;6.07;;;3.08;;
27822;SDS011;29019;47.630;8.262;2023-07-08T16:02:53;6.47;;;2.93;;
27822;SDS011;29019;47.630;8.262;2023-07-08T16:06:55;5.72;;;3.15;;
27822;SDS011;29019;47.630;8.262;2023-07-08T16:10:57;8.70;;;3.30;;
27822;SDS011;29019;47.630;8.262;2023-07-08T16:15:00;9.52;;;3.60;;
27822;SDS011;29019;47.630;8.262;2023-07-08T16:19:01;5.70;;;3.17;;
27822;SDS011;29019;47.630;8.262;2023-07-08T16:27:02;5.30;;;3.23;;
27822;SDS011;29019;47.630;8.262;2023-07-08T16:31:03;6.05;;;2.95;;
27822;SDS011;29019;47.630;8.262;2023-07-08T16:35:07;5.75;;;3.17;;
27822;SDS011;29019;47.630;8.262;2023-07-08T16:39:12;7.45;;;3.53;;
27822;SDS011;29019;47.630;8.262;2023-07-08T16:43:18;5.60;;;3.42;;
27822;SDS011;29019;47.630;8.262;2023-07-08T16:47:23;6.97;;;3.28;;
27822;SDS011;29019;47.630;8.262;2023-07-08T16:51:27;7.13;;;3.42;;
27822;SDS011;29019;47.630;8.262;2023-07-08T16:55:28;6.03;;;3.42;;
27822;SDS011;29019;47.630;8.262;2023-07-08T16:59:29;7.82;;;3.55;;
27822;SDS011;29019;47.630;8.262;2023-07-08T17:07:32;7.65;;;4.05;;
27822;SDS011;29019;47.630;8.262;2023-07-08T17:11:33;5.68;;;4.00;;
27822;SDS011;29019;47.630;8.262;2023-07-08T17:15:33;9.27;;;3.80;;
27822;SDS011;29019;47.630;8.262;2023-07-08T17:23:35;7.00;;;3.73;;
27822;SDS011;29019;47.630;8.262;2023-07-08T17:27:36;9.20;;;4.25;;
27822;SDS011;29019;47.630;8.262;2023-07-08T17:31:36;6.35;;;3.90;;
27822;SDS011;29019;47.630;8.262;2023-07-08T17:35:38;8.35;;;3.97;;
27822;SDS011;29019;47.630;8.262;2023-07-08T17:39:39;7.05;;;4.28;;
27822;SDS011;29019;47.630;8.262;2023-07-08T17:47:40;7.47;;;3.67;;
27822;SDS011;29019;47.630;8.262;2023-07-08T17:55:42;8.03;;;3.93;;
27822;SDS011;29019;47.630;8.262;2023-07-08T18:03:43;7.33;;;3.93;;
27822;SDS011;29019;47.630;8.262;2023-07-08T18:07:46;9.35;;;3.45;;
27822;SDS011;29019;47.630;8.262;2023-07-08T18:11:48;6.32;;;3.80;;
27822;SDS011;29019;47.630;8.262;2023-07-08T18:15:49;9.77;;;3.90;;
27822;SDS011;29019;47.630;8.262;2023-07-08T18:19:49;9.00;;;5.45;;
27822;SDS011;29019;47.630;8.262;2023-07-08T18:23:51;10.70;;;6.47;;
27822;SDS011;29019;47.630;8.262;2023-07-08T18:27:56;16.05;;;7.90;;
27822;SDS011;29019;47.630;8.262;2023-07-08T18:31:56;18.95;;;10.90;;
27822;SDS011;29019;47.630;8.262;2023-07-08T18:35:58;31.73;;;18.10;;
27822;SDS011;29019;47.630;8.262;2023-07-08T18:39:59;33.72;;;18.98;;
27822;SDS011;29019;47.630;8.262;2023-07-08T18:48:01;22.17;;;13.00;;
27822;SDS011;29019;47.630;8.262;2023-07-08T18:52:02;22.17;;;13.02;;
27822;SDS011;29019;47.630;8.262;2023-07-08T18:56:04;23.38;;;11.32;;
27822;SDS011;29019;47.630;8.262;2023-07-08T19:00:05;18.20;;;10.80;;
27822;SDS011;29019;47.630;8.262;2023-07-08T19:04:23;15.63;;;9.25;;
27822;SDS011;29019;47.630;8.262;2023-07-08T19:08:25;12.57;;;8.48;;
27822;SDS011;29019;47.630;8.262;2023-07-08T19:12:27;12.43;;;8.18;;
27822;SDS011;29019;47.630;8.262;2023-07-08T19:16:27;13.75;;;8.20;;
27822;SDS011;29019;47.630;8.262;2023-07-08T19:20:33;11.85;;;7.10;;
27822;SDS011;29019;47.630;8.262;2023-07-08T19:24:36;12.30;;;7.60;;
27822;SDS011;29019;47.630;8.262;2023-07-08T19:28:36;12.55;;;6.30;;
27822;SDS011;29019;47.630;8.262;2023-07-08T19:32:38;10.85;;;5.90;;
27822;SDS011;29019;47.630;8.262;2023-07-08T19:36:42;11.63;;;6.03;;
27822;SDS011;29019;47.630;8.262;2023-07-08T19:40:49;12.18;;;6.25;;
27822;SDS011;29019;47.630;8.262;2023-07-08T19:44:51;9.85;;;5.75;;
27822;SDS011;29019;47.630;8.262;2023-07-08T19:48:52;9.13;;;6.05;;
27822;SDS011;29019;47.630;8.262;2023-07-08T19:52:52;8.85;;;5.07;;
27822;SDS011;29019;47.630;8.262;2023-07-08T20:00:54;9.47;;;5.30;;
27822;SDS011;29019;47.630;8.262;2023-07-08T20:08:55;10.93;;;5.33;;
27822;SDS011;29019;47.630;8.262;2023-07-08T20:12:57;8.73;;;5.15;;
27822;SDS011;29019;47.630;8.262;2023-07-08T20:16:58;9.93;;;5.22;;
27822;SDS011;29019;47.630;8.262;2023-07-08T20:20:59;9.13;;;5.50;;
27822;SDS011;29019;47.630;8.262;2023-07-08T20:25:00;13.73;;;5.50;;
27822;SDS011;29019;47.630;8.262;2023-07-08T20:29:00;11.85;;;6.47;;
27822;SDS011;29019;47.630;8.262;2023-07-08T20:33:02;8.27;;;5.30;;
27822;SDS011;29019;47.630;8.262;2023-07-08T20:37:03;7.00;;;4.90;;
27822;SDS011;29019;47.630;8.262;2023-07-08T20:45:04;12.00;;;5.20;;
27822;SDS011;29019;47.630;8.262;2023-07-08T20:49:07;9.30;;;5.55;;
27822;SDS011;29019;47.630;8.262;2023-07-08T20:53:11;12.05;;;5.82;;
27822;SDS011;29019;47.630;8.262;2023-07-08T20:57:13;13.10;;;5.10;;
27822;SDS011;29019;47.630;8.262;2023-07-08T21:01:15;10.95;;;5.45;;
27822;SDS011;29019;47.630;8.262;2023-07-08T21:05:16;8.52;;;4.47;;
27822;SDS011;29019;47.630;8.262;2023-07-08T21:09:18;11.98;;;5.43;;
27822;SDS011;29019;47.630;8.262;2023-07-08T21:13:19;10.40;;;4.80;;
27822;SDS011;29019;47.630;8.262;2023-07-08T21:17:20;12.82;;;4.97;;
27822;SDS011;29019;47.630;8.262;2023-07-08T21:21:28;7.93;;;4.88;;
27822;SDS011;29019;47.630;8.262;2023-07-08T21:25:28;10.38;;;5.10;;
27822;SDS011;29019;47.630;8.262;2023-07-08T21:33:30;10.20;;;4.80;;
27822;SDS011;29019;47.630;8.262;2023-07-08T21:41:31;9.33;;;4.37;;
27822;SDS011;29019;47.630;8.262;2023-07-08T21:49:33;7.95;;;4.60;;
27822;SDS011;29019;47.630;8.262;2023-07-08T21:53:34;7.60;;;4.18;;
27822;SDS011;29019;47.630;8.262;2023-07-08T21:57:36;8.27;;;4.38;;
27822;SDS011;29019;47.630;8.262;2023-07-08T22:01:37;9.93;;;4.68;;
27822;SDS011;29019;47.630;8.262;2023-07-08T22:05:37;10.02;;;4.90;;
27822;SDS011;29019;47.630;8.262;2023-07-08T22:13:39;7.30;;;4.13;;
27822;SDS011;29019;47.630;8.262;2023-07-08T22:17:40;8.82;;;4.60;;
27822;SDS011;29019;47.630;8.262;2023-07-08T22:21:41;9.38;;;4.30;;
27822;SDS011;29019;47.630;8.262;2023-07-08T22:25:42;6.95;;;4.13;;
27822;SDS011;29019;47.630;8.262;2023-07-08T22:33:43;6.23;;;4.33;;
27822;SDS011;29019;47.630;8.262;2023-07-08T22:37:44;9.45;;;4.57;;
27822;SDS011;29019;47.630;8.262;2023-07-08T22:41:53;7.45;;;3.80;;
27822;SDS011;29019;47.630;8.262;2023-07-08T22:45:54;9.32;;;3.65;;
27822;SDS011;29019;47.630;8.262;2023-07-08T22:49:55;9.38;;;4.07;;
27822;SDS011;29019;47.630;8.262;2023-07-08T22:53:58;5.80;;;3.75;;
27822;SDS011;29019;47.630;8.262;2023-07-08T22:57:59;6.22;;;3.72;;
27822;SDS011;29019;47.630;8.262;2023-07-08T23:02:00;5.40;;;3.88;;
27822;SDS011;29019;47.630;8.262;2023-07-08T23:06:03;7.78;;;4.30;;
27822;SDS011;29019;47.630;8.262;2023-07-08T23:10:04;6.10;;;4.00;;
27822;SDS011;29019;47.630;8.262;2023-07-08T23:14:05;5.20;;;3.70;;
27822;SDS011;29019;47.630;8.262;2023-07-08T23:22:13;5.88;;;3.60;;
27822;SDS011;29019;47.630;8.262;2023-07-08T23:26:19;6.30;;;3.92;;
27822;SDS011;29019;47.630;8.262;2023-07-08T23:30:22;6.00;;;3.53;;
27822;SDS011;29019;47.630;8.262;2023-07-08T23:34:23;10.65;;;3.97;;
27822;SDS011;29019;47.630;8.262;2023-07-08T23:38:24;5.20;;;3.28;;
27822;SDS011;29019;47.630;8.262;2023-07-08T23:42:25;6.90;;;3.80;;
27822;SDS011;29019;47.630;8.262;2023-07-08T23:46:26;6.88;;;4.03;;
27822;SDS011;29019;47.630;8.262;2023-07-08T23:50:30;4.82;;;3.25;;
27822;SDS011;29019;47.630;8.262;2023-07-08T23:54:34;6.82;;;3.40;;
27822;SDS011;29019;47.630;8.262;2023-07-08T23:58:35;5.90;;;3.17;;
